Terminal Aerodrome Forecast
Issued by NWS Bismarck, ND

Home | Current Version | Previous Version | Text Only | Print | Product List | Glossary Off
Versions: 1 2 3 4 5 6 7 8 9 10 11 12 13 14 15 16 17 18 19 20

418
FTUS43 KBIS 030520
TAFISN
TAF
KISN 030520Z 0306/0406 VRB05KT P6SM BKN100
     FM030800 28007KT P6SM VCSH OVC025
     FM031400 29009KT P6SM BKN035
     FM032200 28010KT P6SM BKN050=

USA.gov is the U.S. government's official web portal to all federal, state and local government web resources and services.